sensor_id;sensor_type;location;lat;lon;timestamp;pressure;altitude;pressure_sealevel;temperature;humidity
59829;BME280;45708;51.848;107.620;2023-05-09T00:02:23;95287.66;;;17.03;25.94
59829;BME280;45708;51.848;107.620;2023-05-09T00:07:24;95268.91;;;16.98;26.41
59829;BME280;45708;51.848;107.620;2023-05-09T00:12:25;95270.53;;;16.99;26.37
59829;BME280;45708;51.848;107.620;2023-05-09T00:17:26;95265.41;;;18.19;25.58
59829;BME280;45708;51.848;107.620;2023-05-09T00:22:27;95270.34;;;18.48;24.90
59829;BME280;45708;51.848;107.620;2023-05-09T00:27:28;95268.81;;;19.38;24.08
59829;BME280;45708;51.848;107.620;2023-05-09T00:32:29;95258.09;;;18.72;23.62
59829;BME280;45708;51.848;107.620;2023-05-09T00:37:30;95247.41;;;19.18;23.82
59829;BME280;45708;51.848;107.620;2023-05-09T00:42:31;95254.22;;;20.00;22.85
59829;BME280;45708;51.848;107.620;2023-05-09T00:47:33;95244.75;;;19.03;23.07
59829;BME280;45708;51.848;107.620;2023-05-09T00:52:34;95248.88;;;18.22;24.18
59829;BME280;45708;51.848;107.620;2023-05-09T00:57:36;95234.81;;;20.29;22.31
59829;BME280;45708;51.848;107.620;2023-05-09T01:02:40;95221.13;;;19.51;22.59
59829;BME280;45708;51.848;107.620;2023-05-09T01:08:02;95234.41;;;19.96;22.23
59829;BME280;45708;51.848;107.620;2023-05-09T01:18:42;95211.00;;;21.06;21.43
59829;BME280;45708;51.848;107.620;2023-05-09T01:29:13;95204.72;;;21.73;20.28
59829;BME280;45708;51.848;107.620;2023-05-09T01:34:17;95198.75;;;22.62;20.18
59829;BME280;45708;51.848;107.620;2023-05-09T01:39:21;95195.44;;;21.84;19.92
59829;BME280;45708;51.848;107.620;2023-05-09T01:44:24;95194.09;;;20.17;21.57
59829;BME280;45708;51.848;107.620;2023-05-09T01:49:29;95184.56;;;19.95;21.79
59829;BME280;45708;51.848;107.620;2023-05-09T01:54:31;95171.47;;;20.43;21.42
59829;BME280;45708;51.848;107.620;2023-05-09T01:59:33;95169.50;;;20.88;20.92
59829;BME280;45708;51.848;107.620;2023-05-09T02:04:35;95153.28;;;21.03;20.62
59829;BME280;45708;51.848;107.620;2023-05-09T02:09:37;95161.28;;;20.74;20.72
59829;BME280;45708;51.848;107.620;2023-05-09T02:14:38;95153.69;;;21.68;20.06
59829;BME280;45708;51.848;107.620;2023-05-09T02:19:39;95143.19;;;20.90;20.49
59829;BME280;45708;51.848;107.620;2023-05-09T02:24:41;95146.13;;;21.70;19.79
59829;BME280;45708;51.848;107.620;2023-05-09T02:29:45;95145.72;;;21.58;19.80
59829;BME280;45708;51.848;107.620;2023-05-09T02:34:48;95138.69;;;21.62;19.95
59829;BME280;45708;51.848;107.620;2023-05-09T02:39:50;95129.09;;;21.56;19.88
59829;BME280;45708;51.848;107.620;2023-05-09T02:44:52;95142.94;;;19.43;21.59
59829;BME280;45708;51.848;107.620;2023-05-09T02:49:52;95129.06;;;18.60;22.44
59829;BME280;45708;51.848;107.620;2023-05-09T02:54:53;95127.63;;;17.71;23.65
59829;BME280;45708;51.848;107.620;2023-05-09T02:59:54;95115.16;;;18.07;23.45
59829;BME280;45708;51.848;107.620;2023-05-09T03:04:55;95104.75;;;18.26;22.82
59829;BME280;45708;51.848;107.620;2023-05-09T03:09:57;95099.09;;;18.12;22.93
59829;BME280;45708;51.848;107.620;2023-05-09T03:14:58;95096.44;;;18.07;23.03
59829;BME280;45708;51.848;107.620;2023-05-09T03:19:58;95083.06;;;18.07;23.08
59829;BME280;45708;51.848;107.620;2023-05-09T03:24:59;95086.03;;;18.36;22.93
59829;BME280;45708;51.848;107.620;2023-05-09T03:30:00;95072.41;;;18.43;22.54
59829;BME280;45708;51.848;107.620;2023-05-09T03:35:01;95063.31;;;18.44;22.60
59829;BME280;45708;51.848;107.620;2023-05-09T03:40:02;95045.66;;;18.68;22.52
59829;BME280;45708;51.848;107.620;2023-05-09T03:45:03;95051.13;;;19.18;22.04
59829;BME280;45708;51.848;107.620;2023-05-09T03:50:04;95042.13;;;19.58;21.64
59829;BME280;45708;51.848;107.620;2023-05-09T03:55:05;95036.13;;;19.17;21.56
59829;BME280;45708;51.848;107.620;2023-05-09T04:00:07;95014.88;;;19.45;21.12
59829;BME280;45708;51.848;107.620;2023-05-09T04:05:08;95013.00;;;19.90;20.45
59829;BME280;45708;51.848;107.620;2023-05-09T04:10:09;95006.06;;;20.23;19.91
59829;BME280;45708;51.848;107.620;2023-05-09T04:15:10;94992.75;;;20.42;19.95
59829;BME280;45708;51.848;107.620;2023-05-09T04:20:11;94987.13;;;20.44;20.32
59829;BME280;45708;51.848;107.620;2023-05-09T04:25:12;94978.91;;;20.30;19.69
59829;BME280;45708;51.848;107.620;2023-05-09T04:30:13;94964.19;;;19.93;20.31
59829;BME280;45708;51.848;107.620;2023-05-09T04:35:14;94967.97;;;20.21;19.74
59829;BME280;45708;51.848;107.620;2023-05-09T04:40:15;94947.47;;;20.64;19.73
59829;BME280;45708;51.848;107.620;2023-05-09T04:45:16;94942.72;;;20.56;19.30
59829;BME280;45708;51.848;107.620;2023-05-09T04:50:18;94943.97;;;20.35;17.88
59829;BME280;45708;51.848;107.620;2023-05-09T04:55:19;94931.34;;;20.64;18.56
59829;BME280;45708;51.848;107.620;2023-05-09T05:00:20;94915.97;;;20.94;19.21
59829;BME280;45708;51.848;107.620;2023-05-09T05:05:21;94909.28;;;21.53;18.76
59829;BME280;45708;51.848;107.620;2023-05-09T05:10:21;94867.44;;;21.09;18.95
59829;BME280;45708;51.848;107.620;2023-05-09T05:15:22;94882.34;;;20.78;18.94
59829;BME280;45708;51.848;107.620;2023-05-09T05:20:23;94756.66;;;20.42;18.96
59829;BME280;45708;51.848;107.620;2023-05-09T05:25:24;94880.09;;;21.28;18.72
59829;BME280;45708;51.848;107.620;2023-05-09T05:30:25;94864.81;;;21.42;18.41
59829;BME280;45708;51.848;107.620;2023-05-09T05:35:26;94852.75;;;21.20;18.68
59829;BME280;45708;51.848;107.620;2023-05-09T05:40:27;94856.59;;;21.14;18.57
59829;BME280;45708;51.848;107.620;2023-05-09T05:45:28;94841.41;;;21.61;18.55
59829;BME280;45708;51.848;107.620;2023-05-09T05:50:28;94839.69;;;22.30;18.11
59829;BME280;45708;51.848;107.620;2023-05-09T05:55:29;94827.22;;;22.34;17.86
59829;BME280;45708;51.848;107.620;2023-05-09T06:00:30;94825.22;;;22.54;18.19
59829;BME280;45708;51.848;107.620;2023-05-09T06:05:31;94808.94;;;22.72;17.64
59829;BME280;45708;51.848;107.620;2023-05-09T06:10:32;94788.84;;;22.15;17.71
59829;BME280;45708;51.848;107.620;2023-05-09T06:15:33;94801.31;;;22.38;17.30
59829;BME280;45708;51.848;107.620;2023-05-09T06:20:33;94781.13;;;22.77;17.44
59829;BME280;45708;51.848;107.620;2023-05-09T06:25:34;94782.53;;;22.88;17.71
59829;BME280;45708;51.848;107.620;2023-05-09T06:30:35;94778.91;;;22.93;17.78
59829;BME280;45708;51.848;107.620;2023-05-09T06:35:36;94757.97;;;22.90;17.73
59829;BME280;45708;51.848;107.620;2023-05-09T06:40:36;94764.16;;;22.90;17.89
59829;BME280;45708;51.848;107.620;2023-05-09T06:45:37;94754.97;;;22.77;17.18
59829;BME280;45708;51.848;107.620;2023-05-09T06:50:38;94753.50;;;22.85;17.55
59829;BME280;45708;51.848;107.620;2023-05-09T06:55:39;94750.09;;;22.80;17.17
59829;BME280;45708;51.848;107.620;2023-05-09T07:00:41;94730.28;;;22.62;17.39
59829;BME280;45708;51.848;107.620;2023-05-09T07:05:41;94726.59;;;23.08;17.54
59829;BME280;45708;51.848;107.620;2023-05-09T07:10:42;94720.31;;;23.21;16.62
59829;BME280;45708;51.848;107.620;2023-05-09T07:15:43;94714.31;;;23.01;17.11
59829;BME280;45708;51.848;107.620;2023-05-09T07:20:44;94706.00;;;22.39;16.85
59829;BME280;45708;51.848;107.620;2023-05-09T07:25:45;94683.44;;;22.27;17.04
59829;BME280;45708;51.848;107.620;2023-05-09T07:30:46;94669.91;;;22.54;17.04
59829;BME280;45708;51.848;107.620;2023-05-09T07:35:47;94666.75;;;22.97;17.32
59829;BME280;45708;51.848;107.620;2023-05-09T07:40:47;94656.59;;;22.94;17.18
59829;BME280;45708;51.848;107.620;2023-05-09T07:45:48;94660.44;;;22.79;16.77
59829;BME280;45708;51.848;107.620;2023-05-09T07:50:49;94643.16;;;22.80;17.21
59829;BME280;45708;51.848;107.620;2023-05-09T08:00:54;94633.69;;;23.36;16.71
59829;BME280;45708;51.848;107.620;2023-05-09T08:05:55;94614.22;;;23.39;16.73
59829;BME280;45708;51.848;107.620;2023-05-09T08:10:56;94618.03;;;23.07;16.68
59829;BME280;45708;51.848;107.620;2023-05-09T08:15:57;94609.72;;;23.26;16.75
59829;BME280;45708;51.848;107.620;2023-05-09T08:20:58;94609.97;;;23.47;16.78
59829;BME280;45708;51.848;107.620;2023-05-09T08:25:59;94604.97;;;23.62;16.93
59829;BME280;45708;51.848;107.620;2023-05-09T08:31:00;94594.75;;;23.51;16.76
59829;BME280;45708;51.848;107.620;2023-05-09T08:36:01;94596.41;;;23.60;16.81
59829;BME280;45708;51.848;107.620;2023-05-09T08:41:01;94580.53;;;23.59;16.69
59829;BME280;45708;51.848;107.620;2023-05-09T08:46:06;94587.44;;;23.43;16.52
59829;BME280;45708;51.848;107.620;2023-05-09T08:51:08;94582.78;;;23.26;16.58
59829;BME280;45708;51.848;107.620;2023-05-09T08:56:10;94579.31;;;23.34;16.53
59829;BME280;45708;51.848;107.620;2023-05-09T09:01:13;94573.03;;;23.47;16.55
59829;BME280;45708;51.848;107.620;2023-05-09T09:06:15;94568.97;;;23.58;16.48
59829;BME280;45708;51.848;107.620;2023-05-09T09:11:17;94566.16;;;23.41;16.72
59829;BME280;45708;51.848;107.620;2023-05-09T09:16:19;94565.44;;;23.49;16.63
59829;BME280;45708;51.848;107.620;2023-05-09T09:21:21;94565.06;;;23.42;16.26
59829;BME280;45708;51.848;107.620;2023-05-09T09:26:22;94555.22;;;23.37;16.67
59829;BME280;45708;51.848;107.620;2023-05-09T09:31:26;94548.09;;;23.33;16.54
59829;BME280;45708;51.848;107.620;2023-05-09T09:36:32;94546.91;;;23.17;16.19
59829;BME280;45708;51.848;107.620;2023-05-09T09:41:34;94539.94;;;23.16;16.38
59829;BME280;45708;51.848;107.620;2023-05-09T09:46:43;94542.38;;;22.95;16.18
59829;BME280;45708;51.848;107.620;2023-05-09T09:51:44;94525.00;;;22.78;16.65
59829;BME280;45708;51.848;107.620;2023-05-09T09:56:50;94528.13;;;22.94;16.58
59829;BME280;45708;51.848;107.620;2023-05-09T10:02:01;94526.06;;;23.00;16.42
59829;BME280;45708;51.848;107.620;2023-05-09T10:07:06;94531.91;;;22.93;16.24
59829;BME280;45708;51.848;107.620;2023-05-09T10:12:07;94527.16;;;22.68;16.16
59829;BME280;45708;51.848;107.620;2023-05-09T10:17:12;94519.94;;;22.55;16.32
59829;BME280;45708;51.848;107.620;2023-05-09T10:22:14;94522.78;;;22.50;16.21
59829;BME280;45708;51.848;107.620;2023-05-09T10:27:21;94514.09;;;22.30;16.36
59829;BME280;45708;51.848;107.620;2023-05-09T10:32:27;94515.56;;;22.14;16.48
59829;BME280;45708;51.848;107.620;2023-05-09T10:37:31;94517.41;;;22.05;16.74
59829;BME280;45708;51.848;107.620;2023-05-09T10:42:33;94516.91;;;21.89;16.69
59829;BME280;45708;51.848;107.620;2023-05-09T10:47:34;94508.88;;;21.75;16.73
59829;BME280;45708;51.848;107.620;2023-05-09T10:58:22;94505.34;;;21.66;17.02
59829;BME280;45708;51.848;107.620;2023-05-09T11:03:24;94507.63;;;21.59;16.98
59829;BME280;45708;51.848;107.620;2023-05-09T11:08:29;94504.66;;;21.47;16.99
59829;BME280;45708;51.848;107.620;2023-05-09T11:13:31;94511.94;;;21.33;17.13
59829;BME280;45708;51.848;107.620;2023-05-09T11:18:49;94499.56;;;21.18;17.40
59829;BME280;45708;51.848;107.620;2023-05-09T11:23:50;94502.97;;;20.96;17.87
59829;BME280;45708;51.848;107.620;2023-05-09T11:28:52;94498.78;;;20.62;18.10
59829;BME280;45708;51.848;107.620;2023-05-09T11:34:00;94505.03;;;20.39;18.92
59829;BME280;45708;51.848;107.620;2023-05-09T11:44:02;94508.13;;;19.62;19.58
59829;BME280;45708;51.848;107.620;2023-05-09T11:49:05;94497.06;;;19.21;19.98
59829;BME280;45708;51.848;107.620;2023-05-09T11:54:07;94496.44;;;18.87;20.08
59829;BME280;45708;51.848;107.620;2023-05-09T11:59:08;94489.94;;;18.69;20.30
59829;BME280;45708;51.848;107.620;2023-05-09T12:04:09;94458.88;;;18.44;20.28
59829;BME280;45708;51.848;107.620;2023-05-09T12:09:11;94497.78;;;18.55;20.43
59829;BME280;45708;51.848;107.620;2023-05-09T12:14:25;94501.75;;;18.34;20.23
59829;BME280;45708;51.848;107.620;2023-05-09T12:19:27;94493.78;;;18.29;20.22
59829;BME280;45708;51.848;107.620;2023-05-09T12:24:29;94491.75;;;18.15;20.37
59829;BME280;45708;51.848;107.620;2023-05-09T12:29:30;94501.41;;;18.11;20.25
59829;BME280;45708;51.848;107.620;2023-05-09T12:34:31;94508.97;;;18.04;20.31
59829;BME280;45708;51.848;107.620;2023-05-09T12:39:32;94513.56;;;17.93;20.27
59829;BME280;45708;51.848;107.620;2023-05-09T12:44:33;94512.84;;;17.83;20.50
59829;BME280;45708;51.848;107.620;2023-05-09T12:49:35;94503.31;;;17.61;20.60
59829;BME280;45708;51.848;107.620;2023-05-09T12:54:36;94506.03;;;17.56;20.68
59829;BME280;45708;51.848;107.620;2023-05-09T12:59:42;94516.78;;;17.46;20.91
59829;BME280;45708;51.848;107.620;2023-05-09T13:04:43;94509.94;;;17.25;21.13
59829;BME280;45708;51.848;107.620;2023-05-09T13:09:54;94515.88;;;17.12;21.18
59829;BME280;45708;51.848;107.620;2023-05-09T13:14:55;94515.63;;;17.08;21.19
59829;BME280;45708;51.848;107.620;2023-05-09T13:19:56;94505.03;;;16.78;21.51
59829;BME280;45708;51.848;107.620;2023-05-09T13:24:56;94525.63;;;16.21;22.65
59829;BME280;45708;51.848;107.620;2023-05-09T13:29:59;94517.63;;;15.70;23.21
59829;BME280;45708;51.848;107.620;2023-05-09T13:34:59;94519.13;;;15.41;23.31
59829;BME280;45708;51.848;107.620;2023-05-09T13:40:01;94520.63;;;15.11;23.86
59829;BME280;45708;51.848;107.620;2023-05-09T13:45:02;94530.47;;;15.06;24.42
59829;BME280;45708;51.848;107.620;2023-05-09T13:50:03;94531.47;;;14.95;24.54
59829;BME280;45708;51.848;107.620;2023-05-09T13:55:04;94518.31;;;14.63;25.16
59829;BME280;45708;51.848;107.620;2023-05-09T14:00:05;94533.63;;;14.50;24.99
59829;BME280;45708;51.848;107.620;2023-05-09T14:05:07;94538.81;;;14.35;25.55
59829;BME280;45708;51.848;107.620;2023-05-09T14:10:08;94545.06;;;14.19;25.50
59829;BME280;45708;51.848;107.620;2023-05-09T14:15:09;94544.91;;;13.98;25.96
59829;BME280;45708;51.848;107.620;2023-05-09T14:20:10;94527.19;;;13.77;25.79
59829;BME280;45708;51.848;107.620;2023-05-09T14:25:11;94534.06;;;13.73;26.11
59829;BME280;45708;51.848;107.620;2023-05-09T14:30:12;94537.28;;;13.75;26.19
59829;BME280;45708;51.848;107.620;2023-05-09T14:35:13;94540.72;;;13.76;26.11
59829;BME280;45708;51.848;107.620;2023-05-09T14:40:14;94532.44;;;13.67;26.59
59829;BME280;45708;51.848;107.620;2023-05-09T14:45:15;94519.00;;;13.52;27.45
59829;BME280;45708;51.848;107.620;2023-05-09T14:50:15;94524.91;;;13.59;26.50
59829;BME280;45708;51.848;107.620;2023-05-09T14:55:17;94528.41;;;13.37;27.06
59829;BME280;45708;51.848;107.620;2023-05-09T15:00:18;94525.44;;;13.12;26.99
59829;BME280;45708;51.848;107.620;2023-05-09T15:05:19;94521.72;;;12.86;27.70
59829;BME280;45708;51.848;107.620;2023-05-09T15:10:20;94526.06;;;12.75;27.83
59829;BME280;45708;51.848;107.620;2023-05-09T15:15:22;94532.69;;;12.56;27.91
59829;BME280;45708;51.848;107.620;2023-05-09T15:20:23;94527.28;;;12.46;27.59
59829;BME280;45708;51.848;107.620;2023-05-09T15:25:23;94519.22;;;12.41;28.52
59829;BME280;45708;51.848;107.620;2023-05-09T15:30:24;94528.38;;;12.50;28.78
59829;BME280;45708;51.848;107.620;2023-05-09T15:35:25;94517.16;;;12.43;27.74
59829;BME280;45708;51.848;107.620;2023-05-09T15:40:26;94504.44;;;12.23;28.51
59829;BME280;45708;51.848;107.620;2023-05-09T15:45:27;94511.59;;;12.23;28.63
59829;BME280;45708;51.848;107.620;2023-05-09T15:50:28;94520.72;;;12.15;29.00
59829;BME280;45708;51.848;107.620;2023-05-09T15:55:30;94520.91;;;12.08;28.96
59829;BME280;45708;51.848;107.620;2023-05-09T16:00:31;94522.09;;;11.84;29.84
59829;BME280;45708;51.848;107.620;2023-05-09T16:05:32;94512.19;;;11.63;30.55
59829;BME280;45708;51.848;107.620;2023-05-09T16:10:33;94512.66;;;11.59;30.62
59829;BME280;45708;51.848;107.620;2023-05-09T16:15:34;94508.97;;;11.61;30.47
59829;BME280;45708;51.848;107.620;2023-05-09T16:20:35;94505.75;;;11.58;30.89
59829;BME280;45708;51.848;107.620;2023-05-09T16:25:35;94499.34;;;11.54;30.20
59829;BME280;45708;51.848;107.620;2023-05-09T16:30:36;94491.81;;;11.46;30.74
59829;BME280;45708;51.848;107.620;2023-05-09T16:35:37;94497.72;;;11.37;31.41
59829;BME280;45708;51.848;107.620;2023-05-09T16:40:38;94489.84;;;11.25;31.23
59829;BME280;45708;51.848;107.620;2023-05-09T16:45:39;94491.56;;;11.03;31.66
59829;BME280;45708;51.848;107.620;2023-05-09T16:50:40;94482.56;;;10.75;32.10
59829;BME280;45708;51.848;107.620;2023-05-09T16:55:41;94496.84;;;10.62;32.27
59829;BME280;45708;51.848;107.620;2023-05-09T17:00:42;94491.22;;;10.59;32.23
59829;BME280;45708;51.848;107.620;2023-05-09T17:05:43;94483.66;;;10.51;32.55
59829;BME280;45708;51.848;107.620;2023-05-09T17:10:43;94475.75;;;10.39;33.02
59829;BME280;45708;51.848;107.620;2023-05-09T17:15:44;94482.56;;;10.23;33.02
59829;BME280;45708;51.848;107.620;2023-05-09T17:20:45;94466.00;;;9.93;33.59
59829;BME280;45708;51.848;107.620;2023-05-09T17:25:46;94460.06;;;9.86;34.42
59829;BME280;45708;51.848;107.620;2023-05-09T17:30:46;94462.13;;;9.84;34.60
59829;BME280;45708;51.848;107.620;2023-05-09T17:35:47;94457.28;;;9.81;34.26
59829;BME280;45708;51.848;107.620;2023-05-09T17:40:48;94455.13;;;9.89;34.05
59829;BME280;45708;51.848;107.620;2023-05-09T17:45:50;94449.16;;;9.94;34.41
59829;BME280;45708;51.848;107.620;2023-05-09T17:50:51;94447.78;;;10.03;34.12
59829;BME280;45708;51.848;107.620;2023-05-09T17:55:51;94441.56;;;10.32;32.84
59829;BME280;45708;51.848;107.620;2023-05-09T18:00:52;94431.78;;;10.45;33.06
59829;BME280;45708;51.848;107.620;2023-05-09T18:05:53;94432.25;;;10.18;33.73
59829;BME280;45708;51.848;107.620;2023-05-09T18:10:55;94427.47;;;9.92;34.11
59829;BME280;45708;51.848;107.620;2023-05-09T18:15:56;94421.53;;;9.73;34.40
59829;BME280;45708;51.848;107.620;2023-05-09T18:20:57;94413.38;;;9.51;34.71
59829;BME280;45708;51.848;107.620;2023-05-09T18:25:58;94417.41;;;9.42;34.81
59829;BME280;45708;51.848;107.620;2023-05-09T18:30:59;94422.41;;;9.32;35.13
59829;BME280;45708;51.848;107.620;2023-05-09T18:36:00;94408.78;;;9.23;35.11
59829;BME280;45708;51.848;107.620;2023-05-09T18:41:01;94410.47;;;9.18;35.53
59829;BME280;45708;51.848;107.620;2023-05-09T18:46:02;94401.75;;;9.05;35.51
59829;BME280;45708;51.848;107.620;2023-05-09T18:51:02;94407.47;;;9.02;35.50
59829;BME280;45708;51.848;107.620;2023-05-09T18:56:04;94410.97;;;8.96;36.23
59829;BME280;45708;51.848;107.620;2023-05-09T19:01:04;94413.50;;;8.91;35.92
59829;BME280;45708;51.848;107.620;2023-05-09T19:06:05;94404.91;;;8.84;36.65
59829;BME280;45708;51.848;107.620;2023-05-09T19:11:06;94409.88;;;8.74;37.06
59829;BME280;45708;51.848;107.620;2023-05-09T19:16:07;94387.78;;;8.75;36.88
59829;BME280;45708;51.848;107.620;2023-05-09T19:21:08;94381.84;;;8.79;37.01
59829;BME280;45708;51.848;107.620;2023-05-09T19:26:08;94375.78;;;8.79;36.94
59829;BME280;45708;51.848;107.620;2023-05-09T19:31:09;94382.81;;;8.85;36.61
59829;BME280;45708;51.848;107.620;2023-05-09T19:36:10;94371.13;;;8.81;36.73
59829;BME280;45708;51.848;107.620;2023-05-09T19:41:11;94382.47;;;8.93;36.53
59829;BME280;45708;51.848;107.620;2023-05-09T19:46:11;94376.75;;;8.96;36.55
59829;BME280;45708;51.848;107.620;2023-05-09T19:51:12;94365.28;;;8.91;36.32
59829;BME280;45708;51.848;107.620;2023-05-09T19:56:13;94388.19;;;8.90;36.31
59829;BME280;45708;51.848;107.620;2023-05-09T20:01:16;94370.72;;;8.66;36.96
59829;BME280;45708;51.848;107.620;2023-05-09T20:06:17;94365.28;;;8.61;36.26
59829;BME280;45708;51.848;107.620;2023-05-09T20:11:18;94364.03;;;8.51;37.07
59829;BME280;45708;51.848;107.620;2023-05-09T20:16:19;94357.31;;;8.37;37.31
59829;BME280;45708;51.848;107.620;2023-05-09T20:21:20;94341.41;;;8.14;37.97
59829;BME280;45708;51.848;107.620;2023-05-09T20:26:20;94345.94;;;8.25;37.40
59829;BME280;45708;51.848;107.620;2023-05-09T20:31:21;94328.31;;;8.26;37.64
59829;BME280;45708;51.848;107.620;2023-05-09T20:36:23;94321.09;;;8.21;37.94
59829;BME280;45708;51.848;107.620;2023-05-09T20:41:24;94341.19;;;8.34;37.41
59829;BME280;45708;51.848;107.620;2023-05-09T20:46:24;94365.16;;;8.44;37.65
59829;BME280;45708;51.848;107.620;2023-05-09T20:51:25;94361.50;;;8.45;37.22
59829;BME280;45708;51.848;107.620;2023-05-09T20:56:26;94334.38;;;8.26;37.92
59829;BME280;45708;51.848;107.620;2023-05-09T21:01:27;94369.31;;;8.15;38.25
59829;BME280;45708;51.848;107.620;2023-05-09T21:06:28;94349.16;;;8.09;38.56
59829;BME280;45708;51.848;107.620;2023-05-09T21:11:29;94356.03;;;8.10;38.68
59829;BME280;45708;51.848;107.620;2023-05-09T21:16:30;94324.91;;;8.07;38.80
59829;BME280;45708;51.848;107.620;2023-05-09T21:21:31;94335.00;;;8.40;37.82
59829;BME280;45708;51.848;107.620;2023-05-09T21:26:32;94338.38;;;8.89;36.82
59829;BME280;45708;51.848;107.620;2023-05-09T21:31:32;94350.69;;;9.30;36.10
59829;BME280;45708;51.848;107.620;2023-05-09T21:36:34;94342.72;;;8.83;37.35
59829;BME280;45708;51.848;107.620;2023-05-09T21:41:36;94342.34;;;8.68;37.38
59829;BME280;45708;51.848;107.620;2023-05-09T21:46:37;94343.63;;;9.00;36.80
59829;BME280;45708;51.848;107.620;2023-05-09T21:51:38;94341.50;;;9.21;36.65
59829;BME280;45708;51.848;107.620;2023-05-09T21:56:39;94336.94;;;9.28;36.35
59829;BME280;45708;51.848;107.620;2023-05-09T22:01:39;94341.94;;;9.41;36.57
59829;BME280;45708;51.848;107.620;2023-05-09T22:06:41;94370.03;;;9.35;36.43
59829;BME280;45708;51.848;107.620;2023-05-09T22:11:42;94358.94;;;9.22;36.62
59829;BME280;45708;51.848;107.620;2023-05-09T22:16:42;94339.88;;;9.20;36.36
59829;BME280;45708;51.848;107.620;2023-05-09T22:21:43;94328.06;;;9.57;35.90
59829;BME280;45708;51.848;107.620;2023-05-09T22:26:44;94329.56;;;10.28;33.62
59829;BME280;45708;51.848;107.620;2023-05-09T22:31:45;94321.13;;;10.88;32.30
59829;BME280;45708;51.848;107.620;2023-05-09T22:36:46;94305.38;;;11.66;30.28
59829;BME280;45708;51.848;107.620;2023-05-09T22:41:47;94333.03;;;12.40;29.08
59829;BME280;45708;51.848;107.620;2023-05-09T22:46:48;94335.94;;;11.95;30.75
59829;BME280;45708;51.848;107.620;2023-05-09T22:51:48;94359.91;;;11.33;32.24
59829;BME280;45708;51.848;107.620;2023-05-09T22:56:51;94365.16;;;11.00;33.10
59829;BME280;45708;51.848;107.620;2023-05-09T23:01:52;94357.53;;;10.70;33.55
59829;BME280;45708;51.848;107.620;2023-05-09T23:06:53;94425.78;;;10.89;33.06
59829;BME280;45708;51.848;107.620;2023-05-09T23:11:53;94446.19;;;10.94;33.35
59829;BME280;45708;51.848;107.620;2023-05-09T23:16:54;94442.84;;;10.98;33.24
59829;BME280;45708;51.848;107.620;2023-05-09T23:21:55;94473.06;;;11.03;32.91
59829;BME280;45708;51.848;107.620;2023-05-09T23:26:56;94460.28;;;11.00;32.61
59829;BME280;45708;51.848;107.620;2023-05-09T23:31:56;94470.59;;;11.13;31.90
59829;BME280;45708;51.848;107.620;2023-05-09T23:36:57;94475.84;;;11.24;31.57
59829;BME280;45708;51.848;107.620;2023-05-09T23:41:58;94471.00;;;11.05;32.49
59829;BME280;45708;51.848;107.620;2023-05-09T23:46:59;94466.63;;;11.61;32.22
59829;BME280;45708;51.848;107.620;2023-05-09T23:51:59;94458.47;;;12.12;31.30
59829;BME280;45708;51.848;107.620;2023-05-09T23:57:00;94452.00;;;12.42;30.46
